Time;durP1;ratioP1;P1;durP2;ratioP2;P2;SDS_P1;SDS_P2;PMS_P1;PMS_P2;Temp;Humidity;BMP_temperature;BMP_pressure;BME280_temperature;BME280_humidity;BME280_pressure;Samples;Min_cycle;Max_cycle;Signal;HPM_P1;HPM_P2
2022/03/21 00:01:44;;;;;;;11.35;4.72;;;;;;;-2.22;48.72;101527.56;4453704;32;35090;-74
2022/03/21 00:04:14;;;;;;;7.47;4.00;;;;;;;-2.13;47.07;101525.69;4462069;32;34201;-75
2022/03/21 00:06:43;;;;;;;6.90;3.47;;;;;;;-2.12;47.19;101530.03;4469197;32;34067;-74
2022/03/21 00:09:14;;;;;;;8.07;4.50;;;;;;;-2.12;47.35;101518.91;4466917;32;35740;-75
2022/03/21 00:11:43;;;;;;;5.65;3.42;;;;;;;-2.22;47.11;101522.47;4457050;32;35257;-74
2022/03/21 00:14:12;;;;;;;8.77;5.15;;;;;;;-2.24;48.27;101520.56;4452037;32;33550;-74
2022/03/21 00:16:41;;;;;;;10.77;4.43;;;;;;;-2.21;47.80;101523.34;4453530;32;34182;-75
2022/03/21 00:19:11;;;;;;;5.70;3.80;;;;;;;-2.64;49.45;101525.16;4452992;32;35959;-75
2022/03/21 00:21:39;;;;;;;7.57;3.72;;;;;;;-2.28;49.36;101529.63;4453190;32;34343;-74
2022/03/21 00:24:08;;;;;;;9.70;4.05;;;;;;;-1.99;48.76;101526.75;4451777;32;34140;-75
2022/03/21 00:26:39;;;;;;;8.00;4.00;;;;;;;-2.14;48.42;101529.00;4453628;32;34769;-75
2022/03/21 00:29:09;;;;;;;7.47;4.80;;;;;;;-2.06;47.52;101523.62;4460374;32;34507;-75
2022/03/21 00:31:38;;;;;;;13.60;4.82;;;;;;;-2.01;47.65;101527.38;4471442;32;34339;-75
2022/03/21 00:34:07;;;;;;;10.45;3.92;;;;;;;-2.14;47.68;101523.91;4461908;32;33757;-75
2022/03/21 00:36:36;;;;;;;11.57;4.35;;;;;;;-2.03;48.08;101523.84;4463327;32;33916;-75
2022/03/21 00:39:20;;;;;;;6.47;4.47;;;;;;;-2.20;47.20;101526.00;4469060;32;35034;-75
2022/03/21 00:41:49;;;;;;;5.90;3.47;;;;;;;-3.03;47.69;101514.53;4478801;32;34468;-74
2022/03/21 00:44:19;;;;;;;20.50;4.32;;;;;;;-2.43;47.98;101515.72;4477400;32;34374;-75
2022/03/21 00:46:48;;;;;;;11.07;4.65;;;;;;;-2.37;49.01;101517.06;4444620;32;33821;-75
2022/03/21 00:49:17;;;;;;;6.93;3.65;;;;;;;-2.17;48.46;101516.03;4470651;32;35997;-75
2022/03/21 00:51:45;;;;;;;6.72;3.87;;;;;;;-2.53;49.05;101517.56;4471010;32;34454;-75
2022/03/21 00:54:16;;;;;;;10.50;5.28;;;;;;;-2.09;47.35;101514.06;4470617;32;33353;-75
2022/03/21 00:56:45;;;;;;;10.18;4.15;;;;;;;-2.04;47.52;101510.19;4471198;32;33903;-75
2022/03/21 00:59:14;;;;;;;6.47;3.08;;;;;;;-2.13;48.54;101510.38;4470888;32;35037;-74
2022/03/21 01:01:43;;;;;;;10.30;3.83;;;;;;;-2.19;48.40;101517.59;4470882;32;34676;-74
2022/03/21 01:04:12;;;;;;;11.45;5.35;;;;;;;-2.23;47.29;101507.91;4476504;32;34624;-74
2022/03/21 01:06:41;;;;;;;8.23;4.50;;;;;;;-2.55;48.32;101510.56;4470980;32;33836;-75
2022/03/21 01:09:12;;;;;;;7.82;3.53;;;;;;;-2.62;47.40;101504.09;4476691;32;35081;-75
2022/03/21 01:11:43;;;;;;;7.78;4.87;;;;;;;-2.29;47.90;101508.34;4486670;32;35255;-75
2022/03/21 01:14:13;;;;;;;7.95;4.03;;;;;;;-2.23;49.10;101505.34;4469226;32;33457;-74
2022/03/21 01:16:42;;;;;;;5.55;3.70;;;;;;;-2.34;47.19;101501.13;4470986;32;33891;-75
2022/03/21 01:19:11;;;;;;;8.25;3.50;;;;;;;-2.46;48.37;101502.72;4476028;32;33815;-74
2022/03/21 01:21:41;;;;;;;9.63;4.78;;;;;;;-2.35;48.82;101504.44;4486637;32;34391;-75
2022/03/21 01:24:09;;;;;;;5.53;3.17;;;;;;;-2.35;48.53;101504.44;4479792;32;33330;-75
2022/03/21 01:26:39;;;;;;;7.72;3.45;;;;;;;-2.37;48.79;101504.31;4456924;32;33997;-74
2022/03/21 01:29:09;;;;;;;4.62;3.28;;;;;;;-2.46;48.57;101502.72;4470358;32;35971;-75
2022/03/21 01:31:39;;;;;;;8.80;3.65;;;;;;;-2.52;48.38;101498.06;4463897;32;33767;-74
2022/03/21 01:34:08;;;;;;;8.25;3.62;;;;;;;-2.41;48.08;101501.44;4480148;32;33440;-75
2022/03/21 01:36:37;;;;;;;7.53;4.28;;;;;;;-2.69;48.89;101502.72;4470717;32;34735;-75
2022/03/21 01:39:06;;;;;;;7.72;3.65;;;;;;;-2.38;49.02;101499.09;4467746;32;224773;-75
2022/03/21 01:41:35;;;;;;;5.65;3.83;;;;;;;-2.98;49.81;101492.84;4483469;32;34448;-74
2022/03/21 01:44:08;;;;;;;17.58;4.95;;;;;;;-2.49;49.48;101499.19;4474690;32;34188;-75
2022/03/21 01:46:39;;;;;;;8.15;3.60;;;;;;;-2.38;49.68;101497.44;4472793;32;34871;-75
2022/03/21 01:49:09;;;;;;;8.40;4.55;;;;;;;-2.65;49.17;101502.97;4480488;32;35183;-75
2022/03/21 01:51:40;;;;;;;7.10;3.97;;;;;;;-2.21;48.03;101497.81;4444219;32;33757;-75
2022/03/21 01:56:57;;;;;;;4.97;3.42;;;;;;;-2.04;48.86;101494.00;4470053;32;34684;-75
2022/03/21 01:59:27;;;;;;;5.22;3.40;;;;;;;-2.17;48.49;101490.53;4462653;32;34801;-74
2022/03/21 02:01:56;;;;;;;11.12;4.18;;;;;;;-2.11;48.32;101485.84;4486270;32;34456;-73
2022/03/21 02:04:26;;;;;;;5.47;3.12;;;;;;;-2.13;47.95;101489.09;4478598;32;34389;-75
2022/03/21 02:06:55;;;;;;;5.20;3.97;;;;;;;-2.28;48.67;101488.81;4470542;32;34138;-74
2022/03/21 02:09:24;;;;;;;7.75;4.43;;;;;;;-2.35;48.97;101484.94;4469596;32;35955;-75
2022/03/21 02:11:53;;;;;;;5.43;3.70;;;;;;;-2.36;49.10;101489.91;4470533;32;34612;-75
2022/03/21 02:14:23;;;;;;;7.40;4.10;;;;;;;-2.34;49.04;101481.59;4462008;32;33500;-74
2022/03/21 02:16:51;;;;;;;5.72;2.97;;;;;;;-2.56;49.65;101475.62;4472110;32;33949;-74
2022/03/21 02:19:36;;;;;;;7.25;4.25;;;;;;;-3.00;48.28;101474.00;4482126;32;35809;-74
2022/03/21 02:22:28;;;;;;;6.75;4.12;;;;;;;-2.42;48.44;101474.13;4470050;32;35279;-74
2022/03/21 02:25:03;;;;;;;7.03;4.40;;;;;;;-2.78;49.79;101476.53;4456310;32;33516;-74
2022/03/21 02:27:34;;;;;;;6.20;4.43;;;;;;;-2.31;48.96;101476.72;4456900;32;34889;-75
2022/03/21 02:30:04;;;;;;;6.78;3.80;;;;;;;-2.25;48.28;101472.84;4453027;32;35956;-75
2022/03/21 02:32:36;;;;;;;8.25;4.05;;;;;;;-2.39;49.88;101482.03;4478709;32;35464;-75
2022/03/21 02:35:10;;;;;;;9.75;4.75;;;;;;;-2.44;49.02;101479.09;4456333;32;33471;-74
2022/03/21 02:37:41;;;;;;;5.95;4.35;;;;;;;-2.03;47.98;101475.31;4456509;32;34670;-75
2022/03/21 02:40:12;;;;;;;4.10;2.70;;;;;;;-2.24;48.87;101477.16;4479759;32;35953;-75
2022/03/21 02:42:42;;;;;;;7.43;4.07;;;;;;;-1.93;47.88;101465.03;4471951;32;33832;-74
2022/03/21 02:45:11;;;;;;;9.55;5.60;;;;;;;-2.02;47.84;101459.25;4474915;32;33631;-74
2022/03/21 02:47:40;;;;;;;3.67;3.20;;;;;;;-2.11;48.18;101468.00;4470295;32;34830;-75
2022/03/21 02:50:13;;;;;;;24.60;4.35;;;;;;;-2.31;47.54;101469.06;4469202;32;35140;-74
2022/03/21 02:52:43;;;;;;;7.18;3.70;;;;;;;-2.11;48.75;101470.53;4469048;32;34236;-75
2022/03/21 02:55:12;;;;;;;7.37;3.92;;;;;;;-2.35;47.90;101473.81;4469812;32;32912;-75
2022/03/21 02:57:56;;;;;;;5.30;3.47;;;;;;;-2.38;48.22;101466.84;4461421;31;33911;-74
2022/03/21 03:01:19;;;;;;;5.65;4.10;;;;;;;-1.87;47.70;101470.59;4445584;32;34770;-74
2022/03/21 03:03:53;;;;;;;11.77;4.20;;;;;;;-1.87;47.71;101462.94;4455634;32;34308;-74
2022/03/21 03:06:22;;;;;;;10.05;4.80;;;;;;;-1.81;46.63;101465.06;4456056;32;33320;-74
2022/03/21 03:08:51;;;;;;;7.82;3.72;;;;;;;-1.73;46.36;101459.72;4469396;32;34617;-74
2022/03/21 03:11:20;;;;;;;6.40;4.00;;;;;;;-1.67;47.47;101466.94;4469675;32;35037;-74
2022/03/21 03:13:50;;;;;;;7.35;3.75;;;;;;;-1.72;46.72;101465.72;4470845;31;34420;-73
2022/03/21 03:16:21;;;;;;;8.98;4.55;;;;;;;-1.83;47.54;101464.94;4472975;31;32654;-72
2022/03/21 03:18:50;;;;;;;6.55;3.85;;;;;;;-1.93;47.37;101476.12;4469434;32;33711;-83
2022/03/21 03:21:21;;;;;;;9.07;3.85;;;;;;;-1.75;47.94;101471.50;4485325;32;35076;-84
2022/03/21 03:23:50;;;;;;;9.52;4.87;;;;;;;-2.29;47.58;101466.63;4470114;32;34938;-83
2022/03/21 03:26:18;;;;;;;8.50;3.87;;;;;;;-1.99;48.15;101464.59;4455776;32;34055;-83
2022/03/21 03:28:46;;;;;;;5.70;3.30;;;;;;;-2.28;49.08;101465.84;4454965;32;33815;-83
2022/03/21 03:31:15;;;;;;;9.18;3.80;;;;;;;-2.03;47.31;101463.47;4469602;32;34973;-83
2022/03/21 03:33:45;;;;;;;7.22;4.03;;;;;;;-2.08;48.53;101457.16;4455481;32;34420;-83
2022/03/21 03:36:15;;;;;;;7.20;4.18;;;;;;;-2.22;48.15;101470.50;4468529;32;31927;-83
2022/03/21 03:38:43;;;;;;;7.95;3.28;;;;;;;-2.56;50.13;101473.97;4469431;32;33778;-83
2022/03/21 03:41:12;;;;;;;8.50;4.18;;;;;;;-2.07;47.55;101473.34;4452464;32;33907;-83
2022/03/21 03:43:43;;;;;;;8.77;4.87;;;;;;;-2.53;46.86;101464.00;4452524;32;34308;-83
2022/03/21 03:46:11;;;;;;;5.22;3.37;;;;;;;-1.97;46.96;101463.03;4452217;32;32375;-82
2022/03/21 03:48:41;;;;;;;9.25;4.20;;;;;;;-1.95;48.30;101472.56;4453617;32;33797;-83
2022/03/21 03:51:10;;;;;;;6.72;4.18;;;;;;;-2.41;47.44;101479.34;4453248;32;34210;-83
2022/03/21 03:53:39;;;;;;;5.78;3.80;;;;;;;-2.32;45.77;101474.06;4452507;32;33982;-83
2022/03/21 03:56:08;;;;;;;8.05;4.05;;;;;;;-2.11;47.68;101479.88;4453187;32;33775;-84
2022/03/21 03:58:36;;;;;;;6.40;3.67;;;;;;;-2.17;48.27;101480.31;4452333;32;34655;-83
2022/03/21 04:01:06;;;;;;;10.00;3.75;;;;;;;-1.84;46.95;101477.59;4453099;32;35018;-83
2022/03/21 04:03:46;;;;;;;9.27;4.30;;;;;;;-2.45;48.94;101478.97;4452278;32;34838;-83
2022/03/21 04:06:19;;;;;;;9.48;4.80;;;;;;;-2.80;48.67;101485.72;4456622;32;32747;-83
2022/03/21 04:08:49;;;;;;;7.95;4.78;;;;;;;-2.34;48.33;101480.72;4471189;32;34659;-83
2022/03/21 04:11:17;;;;;;;5.70;3.62;;;;;;;-2.84;48.44;101481.19;4454477;32;35906;-83
2022/03/21 04:13:46;;;;;;;6.62;3.05;;;;;;;-2.52;48.29;101475.09;4454320;32;34014;-83
2022/03/21 04:16:15;;;;;;;6.78;4.35;;;;;;;-2.07;46.88;101483.53;4456410;32;33140;-83
2022/03/21 04:18:43;;;;;;;6.53;3.53;;;;;;;-2.30;45.94;101478.47;4442167;32;33697;-83
2022/03/21 04:21:27;;;;;;;7.70;3.87;;;;;;;-2.22;46.92;101480.72;4455096;32;35023;-83
2022/03/21 04:23:57;;;;;;;15.80;4.32;;;;;;;-2.96;48.36;101488.75;4461922;32;35252;-83
2022/03/21 04:26:26;;;;;;;8.27;4.47;;;;;;;-2.60;49.63;101483.81;4453984;32;33280;-83
2022/03/21 04:28:55;;;;;;;7.68;4.68;;;;;;;-2.57;47.92;101487.50;4459756;32;33842;-84
2022/03/21 04:34:50;;;;;;;8.80;5.12;;;;;;;-2.60;48.03;101483.81;4236592;28;20102;-76
2022/03/21 04:37:19;;;;;;;11.50;5.55;;;;;;;-2.90;48.70;101490.87;4246807;33;34166;-74
2022/03/21 04:39:47;;;;;;;7.43;4.37;;;;;;;-3.02;50.16;101495.91;4242414;33;34741;-74
2022/03/21 04:42:16;;;;;;;7.65;3.87;;;;;;;-2.94;48.83;101491.41;4247582;33;34739;-75
2022/03/21 04:44:44;;;;;;;6.65;4.25;;;;;;;-3.43;51.10;101490.97;4247650;33;34459;-75
2022/03/21 04:47:12;;;;;;;7.60;4.75;;;;;;;-2.98;50.27;101497.94;4246431;33;33865;-75
2022/03/21 04:49:40;;;;;;;8.18;4.15;;;;;;;-3.01;50.75;101490.03;4246255;33;34094;-75
2022/03/21 04:52:08;;;;;;;8.52;4.70;;;;;;;-3.19;53.03;101493.69;4250246;33;35992;-77
2022/03/21 04:54:36;;;;;;;8.32;4.43;;;;;;;-3.08;51.36;101495.44;4219673;34;34428;-74
2022/03/21 04:57:06;;;;;;;7.18;4.68;;;;;;;-3.04;49.18;101492.34;4240575;33;34369;-75
2022/03/21 04:59:34;;;;;;;17.75;4.90;;;;;;;-2.98;49.56;101497.94;4233702;33;35074;-75
2022/03/21 05:02:03;;;;;;;10.02;5.32;;;;;;;-2.27;48.97;101500.81;4232496;33;34894;-76
2022/03/21 05:04:31;;;;;;;11.35;6.20;;;;;;;-2.63;49.38;101502.34;4233185;33;34362;-83
2022/03/21 05:06:59;;;;;;;9.27;4.97;;;;;;;-1.68;48.74;101498.34;4229731;33;34183;-78
2022/03/21 05:09:27;;;;;;;10.20;5.37;;;;;;;-2.44;51.01;101507.16;4233290;33;34026;-80
2022/03/21 05:11:55;;;;;;;20.05;5.60;;;;;;;-1.68;46.94;101505.13;4243457;33;35866;-76
2022/03/21 05:14:23;;;;;;;13.38;5.55;;;;;;;-2.34;48.21;101506.22;4243353;33;35196;-79
2022/03/21 05:16:52;;;;;;;8.45;4.68;;;;;;;-2.01;49.18;101506.97;4232921;33;33788;-79
2022/03/21 05:19:19;;;;;;;11.43;5.35;;;;;;;-2.26;48.78;101512.78;4233149;33;33924;-82
2022/03/21 05:21:47;;;;;;;10.25;6.00;;;;;;;-1.82;50.16;101510.09;4231675;33;33039;-80
2022/03/21 05:32:35;;;;;;;11.68;6.22;;;;;;;3.04;40.41;101509.62;4242409;33;35076;-76
2022/03/21 05:37:49;;;;;;;10.02;5.37;;;;;;;5.35;35.47;101506.44;4233478;33;34317;-76
2022/03/21 05:40:34;;;;;;;12.18;5.37;;;;;;;6.07;31.39;101500.19;4232838;33;33803;-83
2022/03/21 05:43:02;;;;;;;11.07;5.55;;;;;;;5.37;35.44;101513.47;4233611;33;35104;-77
2022/03/21 05:45:30;;;;;;;11.10;6.25;;;;;;;4.70;37.27;101516.38;4231667;33;34492;-84
2022/03/21 05:50:45;;;;;;;10.63;5.90;;;;;;;4.80;38.95;101525.41;4233723;33;34720;-80
2022/03/21 05:53:13;;;;;;;11.95;6.32;;;;;;;4.89;37.74;101512.97;4232464;33;34986;-77
2022/03/21 05:55:40;;;;;;;30.77;8.23;;;;;;;5.48;33.78;101517.41;4232725;33;34660;-85
2022/03/21 05:58:08;;;;;;;24.52;8.35;;;;;;;5.58;35.25;101510.09;4232550;33;34413;-76
2022/03/21 06:00:36;;;;;;;15.10;6.32;;;;;;;6.39;34.22;101512.72;4232907;33;33849;-79
2022/03/21 06:03:08;;;;;;;15.73;6.90;;;;;;;6.09;34.45;101515.78;4233346;33;34794;-84
2022/03/21 06:05:36;;;;;;;13.62;7.05;;;;;;;5.73;37.16;101522.78;4232633;33;35366;-81
2022/03/21 06:08:04;;;;;;;12.75;6.37;;;;;;;6.30;35.55;101507.13;4232186;33;32294;-83
2022/03/21 06:10:32;;;;;;;12.35;6.80;;;;;;;6.39;33.89;101520.47;4232633;33;34137;-80
2022/03/21 06:13:05;;;;;;;20.67;8.00;;;;;;;6.90;32.30;101518.22;4232545;33;34996;-76
2022/03/21 06:15:35;;;;;;;31.40;10.02;;;;;;;6.97;35.60;101515.06;4231564;33;34443;-77
2022/03/21 06:18:08;;;;;;;16.75;8.07;;;;;;;7.58;32.40;101515.59;4232585;33;33641;-83
2022/03/21 06:20:39;;;;;;;16.02;7.32;;;;;;;7.87;28.80;101519.25;4231722;33;34241;-80
2022/03/21 06:23:07;;;;;;;20.83;7.68;;;;;;;7.92;27.66;101516.78;4232741;33;35062;-77
2022/03/21 06:25:36;;;;;;;15.68;7.07;;;;;;;8.01;27.82;101521.41;4231530;33;34579;-85
2022/03/21 06:28:04;;;;;;;18.98;9.07;;;;;;;8.91;26.39;101527.03;4232724;33;33454;-81
2022/03/21 06:30:33;;;;;;;12.60;7.18;;;;;;;9.01;28.36;101529.91;4232884;33;33813;-76
2022/03/21 06:33:00;;;;;;;13.32;7.47;;;;;;;8.74;27.21;101523.03;4233053;33;35937;-76
2022/03/21 06:35:28;;;;;;;15.90;9.32;;;;;;;9.80;25.07;101528.75;4231737;33;34230;-76
2022/03/21 06:37:56;;;;;;;12.52;6.68;;;;;;;9.46;25.82;101533.03;4233491;33;33489;-87
2022/03/21 06:40:25;;;;;;;13.02;7.55;;;;;;;8.37;27.46;101524.38;4232765;33;33753;-84
2022/03/21 06:42:53;;;;;;;16.98;8.15;;;;;;;9.57;25.73;101533.31;4230869;33;35126;-76
2022/03/21 06:45:21;;;;;;;12.52;7.78;;;;;;;9.88;26.87;101528.97;4230790;33;34854;-76
2022/03/21 06:47:49;;;;;;;15.15;8.80;;;;;;;9.83;24.73;101530.59;4232997;33;33572;-75
2022/03/21 06:50:17;;;;;;;15.07;8.18;;;;;;;9.49;26.05;101535.72;4231896;33;33954;-75
2022/03/21 06:52:45;;;;;;;14.82;8.13;;;;;;;9.54;25.11;101533.22;4233368;33;35774;-75
2022/03/21 06:55:13;;;;;;;18.12;8.48;;;;;;;10.26;24.79;101536.94;4231356;33;33072;-76
2022/03/21 06:57:41;;;;;;;22.87;9.93;;;;;;;10.13;25.07;101533.12;4233402;33;34505;-74
2022/03/21 07:00:09;;;;;;;18.02;9.35;;;;;;;9.79;25.56;101541.72;4232910;33;33963;-74
2022/03/21 07:02:37;;;;;;;14.48;8.13;;;;;;;9.82;24.36;101541.81;4233259;33;35250;-77
2022/03/21 07:05:07;;;;;;;13.95;7.60;;;;;;;9.64;25.79;101545.66;4230245;33;34836;-72
2022/03/21 07:07:35;;;;;;;16.12;7.95;;;;;;;9.77;24.36;101548.63;4231198;33;33407;-75
2022/03/21 07:10:05;;;;;;;16.62;8.63;;;;;;;10.20;23.79;101547.16;4231081;33;34285;-73
2022/03/21 07:12:34;;;;;;;14.90;7.53;;;;;;;9.43;25.01;101547.66;4231923;33;35235;-74
2022/03/21 07:15:03;;;;;;;18.80;9.35;;;;;;;9.11;26.14;101552.75;4232301;33;34362;-73
2022/03/21 07:17:31;;;;;;;15.75;9.10;;;;;;;9.49;25.51;101559.13;4231714;33;33598;-74
2022/03/21 07:19:59;;;;;;;19.45;9.75;;;;;;;10.11;24.36;101555.66;4232007;33;33431;-74
2022/03/21 07:22:26;;;;;;;18.33;9.40;;;;;;;10.23;24.89;101555.94;4233166;33;36050;-86
2022/03/21 07:24:55;;;;;;;15.02;8.07;;;;;;;9.58;26.34;101560.22;4232235;33;34459;-86
2022/03/21 07:27:23;;;;;;;17.77;9.30;;;;;;;9.78;24.85;101553.88;4232206;33;33534;-75
2022/03/21 07:29:50;;;;;;;13.50;8.52;;;;;;;10.52;24.12;101552.37;4231158;33;34554;-75
2022/03/21 07:32:18;;;;;;;15.55;8.60;;;;;;;10.82;23.65;101552.25;4220273;33;35662;-84
2022/03/21 07:34:46;;;;;;;16.17;8.57;;;;;;;11.01;23.88;101556.13;4231931;33;34281;-78
2022/03/21 07:37:14;;;;;;;15.63;9.15;;;;;;;11.08;23.76;101560.69;4233000;33;33052;-81
2022/03/21 07:39:45;;;;;;;18.10;8.65;;;;;;;10.73;23.82;101555.50;4233190;33;34090;-74
2022/03/21 07:42:16;;;;;;;13.52;7.97;;;;;;;10.53;23.40;101559.34;4234619;33;35941;-75
2022/03/21 07:47:30;;;;;;;16.53;8.87;;;;;;;10.82;23.66;101560.94;4232811;33;33706;-85
2022/03/21 07:49:58;;;;;;;14.50;8.18;;;;;;;10.81;23.96;101561.78;4233788;33;33806;-83
2022/03/21 07:52:26;;;;;;;15.18;8.00;;;;;;;11.22;23.03;101570.53;4234448;33;35766;-77
2022/03/21 07:54:54;;;;;;;16.15;9.35;;;;;;;11.17;23.89;101568.72;4233633;33;34449;-80
2022/03/21 07:57:23;;;;;;;14.32;8.68;;;;;;;11.51;22.90;101561.63;4234438;33;33199;-76
2022/03/21 07:59:52;;;;;;;18.40;9.73;;;;;;;11.43;23.17;101557.06;4232502;33;33198;-82
2022/03/21 08:02:21;;;;;;;14.35;8.85;;;;;;;12.46;22.21;101567.81;4233337;33;35954;-76
2022/03/21 08:04:50;;;;;;;24.83;9.30;;;;;;;12.10;21.91;101568.03;4232594;33;34462;-74
2022/03/21 08:07:25;;;;;;;15.67;9.07;;;;;;;12.28;21.24;101570.09;4233464;33;34242;-83
2022/03/21 08:09:53;;;;;;;17.70;9.43;;;;;;;12.78;21.08;101564.00;4232913;33;34825;-75
2022/03/21 08:12:21;;;;;;;20.42;10.23;;;;;;;12.76;21.07;101566.56;4233632;33;34746;-74
2022/03/21 08:14:49;;;;;;;17.27;9.32;;;;;;;12.35;21.90;101569.34;4233525;33;34547;-78
2022/03/21 08:17:18;;;;;;;18.95;9.48;;;;;;;12.48;21.96;101565.25;4244845;33;33609;-76
2022/03/21 08:19:45;;;;;;;17.67;8.57;;;;;;;11.74;22.47;101556.00;4243917;33;34049;-72
2022/03/21 08:22:15;;;;;;;19.48;9.07;;;;;;;13.18;21.14;101569.81;4233591;33;35965;-75
2022/03/21 08:24:49;;;;;;;17.70;9.32;;;;;;;12.24;21.92;101563.06;4233644;33;34453;-75
2022/03/21 08:27:16;;;;;;;15.52;9.63;;;;;;;13.48;20.58;101565.87;4234278;33;33577;-76
2022/03/21 08:29:44;;;;;;;19.92;9.68;;;;;;;13.39;20.49;101562.28;4232829;33;33849;-77
2022/03/21 08:32:12;;;;;;;19.25;10.02;;;;;;;12.89;20.76;101557.19;4234249;33;35105;-80
2022/03/21 08:34:41;;;;;;;17.20;9.40;;;;;;;12.88;21.13;101553.69;4233364;33;35128;-75
2022/03/21 08:37:09;;;;;;;20.65;10.65;;;;;;;13.28;20.88;101551.63;4244976;33;34480;-74
2022/03/21 08:39:37;;;;;;;17.10;10.80;;;;;;;13.08;21.65;101556.59;4233517;33;33972;-84
2022/03/21 08:42:05;;;;;;;16.87;9.35;;;;;;;13.36;21.06;101550.88;4233067;33;33713;-81
2022/03/21 08:44:33;;;;;;;16.70;10.43;;;;;;;13.72;19.87;101537.41;4232698;33;34386;-80
2022/03/21 08:47:01;;;;;;;17.05;9.18;;;;;;;13.24;21.29;101542.00;4233353;33;33516;-75
2022/03/21 08:49:33;;;;;;;18.25;10.70;;;;;;;13.73;20.68;101539.16;4233617;33;33851;-74
2022/03/21 08:52:03;;;;;;;16.52;10.00;;;;;;;12.96;21.38;101540.72;4233691;33;36042;-78
2022/03/21 08:54:32;;;;;;;19.27;9.60;;;;;;;14.33;20.37;101531.94;4232228;33;34452;-84
2022/03/21 08:57:04;;;;;;;16.15;9.65;;;;;;;14.85;19.81;101530.62;4232170;33;32736;-74
2022/03/21 08:59:33;;;;;;;19.25;10.40;;;;;;;14.81;19.57;101532.34;4232241;33;33439;-75
2022/03/21 09:02:02;;;;;;;14.68;9.13;;;;;;;15.01;19.26;101534.22;4233190;33;35099;-78
2022/03/21 09:04:30;;;;;;;15.23;9.15;;;;;;;14.69;19.01;101529.63;4232222;33;34454;-74
2022/03/21 09:06:58;;;;;;;17.80;10.10;;;;;;;15.20;18.98;101520.31;4232874;33;34421;-75
2022/03/21 09:09:26;;;;;;;17.70;10.38;;;;;;;14.38;20.35;101524.97;4233216;33;34781;-75
2022/03/21 09:11:54;;;;;;;19.10;10.05;;;;;;;14.96;19.93;101521.06;4233175;33;35041;-81
2022/03/21 09:14:23;;;;;;;18.80;9.45;;;;;;;15.00;19.64;101524.56;4231105;33;34281;-85
2022/03/21 09:16:52;;;;;;;17.10;9.25;;;;;;;14.84;19.48;101521.87;4232925;33;33632;-82
2022/03/21 09:19:22;;;;;;;18.00;8.68;;;;;;;15.20;18.59;101522.94;4233155;33;33998;-75
2022/03/21 09:21:51;;;;;;;16.87;9.85;;;;;;;15.22;19.03;101520.34;4220043;34;35053;-74
2022/03/21 09:24:19;;;;;;;20.27;10.60;;;;;;;15.36;19.14;101522.16;4219766;33;35144;-75
2022/03/21 09:26:47;;;;;;;15.90;8.98;;;;;;;15.56;18.74;101510.84;4219930;34;33596;-82
2022/03/21 09:29:16;;;;;;;20.08;9.93;;;;;;;15.33;19.04;101516.88;4219853;33;33949;-75
2022/03/21 09:31:44;;;;;;;17.77;9.23;;;;;;;14.31;19.08;101507.44;4233231;33;35565;-85
2022/03/21 09:34:13;;;;;;;14.93;9.23;;;;;;;15.73;17.97;101508.28;4233651;33;34594;-74
2022/03/21 09:36:42;;;;;;;19.67;9.05;;;;;;;15.78;18.09;101505.72;4233059;33;33713;-75
2022/03/21 09:39:10;;;;;;;15.93;9.05;;;;;;;15.81;17.89;101518.84;4233826;33;34785;-77
2022/03/21 09:41:38;;;;;;;11.70;7.50;;;;;;;14.58;19.18;101506.81;4231287;33;35057;-76
2022/03/21 09:44:09;;;;;;;12.40;7.50;;;;;;;16.35;17.58;101504.03;4233779;33;34590;-76
2022/03/21 09:46:38;;;;;;;14.87;9.18;;;;;;;15.98;17.11;101496.09;4231892;33;32732;-81
2022/03/21 09:49:10;;;;;;;16.08;8.02;;;;;;;16.76;17.73;101499.62;4232721;33;34938;-77
2022/03/21 09:51:39;;;;;;;13.23;7.28;;;;;;;17.10;16.94;101499.56;4232555;33;35854;-76
2022/03/21 09:54:09;;;;;;;12.48;7.12;;;;;;;17.36;15.84;101496.84;4232408;33;34643;-84
2022/03/21 09:56:38;;;;;;;14.00;8.35;;;;;;;17.19;16.25;101497.78;4233123;33;33919;-77
2022/03/21 09:59:05;;;;;;;19.75;7.55;;;;;;;16.88;16.59;101499.62;4233731;33;34017;-77
2022/03/21 10:01:34;;;;;;;13.88;8.13;;;;;;;17.17;15.92;101501.28;4241960;33;35065;-76
2022/03/21 10:04:03;;;;;;;12.37;7.43;;;;;;;17.29;15.58;101492.47;4230535;33;34576;-87
2022/03/21 10:06:39;;;;;;;16.75;7.30;;;;;;;17.18;15.47;101497.78;4231947;33;33514;-81
2022/03/21 10:09:11;;;;;;;14.32;7.43;;;;;;;18.17;14.04;101499.03;4233599;33;33961;-84
2022/03/21 10:11:46;;;;;;;13.62;7.45;;;;;;;17.46;14.69;101488.03;4232428;33;35166;-81
2022/03/21 10:14:37;;;;;;;14.35;6.72;;;;;;;17.93;14.80;101496.56;4243903;33;35203;-78
2022/03/21 10:17:10;;;;;;;15.45;7.90;;;;;;;18.36;13.97;101488.34;4223671;33;33721;-84
2022/03/21 10:19:42;;;;;;;14.60;7.43;;;;;;;17.80;15.08;101483.44;4232203;33;34022;-77
2022/03/21 10:22:15;;;;;;;16.52;8.23;;;;;;;18.50;14.99;101475.91;4221418;33;34938;-84
2022/03/21 10:24:45;;;;;;;14.38;8.13;;;;;;;17.97;14.97;101480.72;4232717;33;34517;-85
2022/03/21 10:27:27;;;;;;;11.70;7.03;;;;;;;18.46;14.50;101475.94;4233225;33;33683;-77
2022/03/21 10:30:01;;;;;;;13.50;8.00;;;;;;;17.69;15.51;101479.12;4232736;33;34035;-77
2022/03/21 10:32:35;;;;;;;11.73;7.50;;;;;;;18.42;14.25;101476.88;4232602;33;36048;-76
2022/03/21 10:35:07;;;;;;;13.75;8.00;;;;;;;17.12;15.48;101467.09;4232545;33;34496;-76
2022/03/21 10:37:50;;;;;;;13.90;8.95;;;;;;;18.64;13.89;101464.34;4232139;33;33480;-77
2022/03/21 10:40:21;;;;;;;17.98;9.40;;;;;;;18.18;14.09;101458.59;4232658;33;34179;-76
2022/03/21 10:42:57;;;;;;;14.65;8.15;;;;;;;18.83;14.64;101457.13;4233311;33;35918;-76
2022/03/21 10:45:41;;;;;;;17.60;9.32;;;;;;;18.06;14.89;101453.44;4231413;33;34458;-76
2022/03/21 10:48:11;;;;;;;14.93;8.63;;;;;;;18.25;14.85;101445.34;4231408;33;34325;-76
2022/03/21 10:50:47;;;;;;;15.65;8.57;;;;;;;19.65;14.05;101443.78;4232563;33;34051;-75
2022/03/21 10:53:17;;;;;;;13.27;7.90;;;;;;;19.63;13.71;101443.78;4232108;33;36005;-79
2022/03/21 10:55:47;;;;;;;16.02;9.25;;;;;;;20.43;12.87;101439.00;4232172;33;34517;-76
2022/03/21 10:58:17;;;;;;;20.15;9.35;;;;;;;17.19;15.08;101437.25;4243777;33;32487;-77
2022/03/21 11:00:45;;;;;;;14.95;8.18;;;;;;;20.01;13.86;101446.75;4232534;33;34935;-76
2022/03/21 11:03:16;;;;;;;13.25;7.75;;;;;;;21.02;13.04;101434.38;4219636;33;35895;-76
2022/03/21 11:05:46;;;;;;;15.18;8.75;;;;;;;20.75;13.09;101437.56;4224026;33;34578;-76
2022/03/21 11:08:18;;;;;;;15.30;8.38;;;;;;;20.12;14.17;101428.97;4232621;33;34547;-80
2022/03/21 11:10:46;;;;;;;14.80;9.15;;;;;;;21.51;12.80;101420.97;4231448;33;34692;-79
2022/03/21 11:13:14;;;;;;;15.80;8.25;;;;;;;21.81;11.89;101418.53;4231330;33;35490;-76
2022/03/21 11:15:42;;;;;;;14.63;8.00;;;;;;;21.30;12.04;101417.00;4231985;33;34524;-80
2022/03/21 11:18:10;;;;;;;13.38;7.72;;;;;;;21.78;11.64;101414.19;4232907;33;33202;-76
2022/03/21 11:20:38;;;;;;;15.15;8.60;;;;;;;20.00;12.78;101415.94;4231005;33;33851;-76
2022/03/21 11:23:06;;;;;;;18.10;8.88;;;;;;;20.16;12.78;101414.78;4244383;33;35014;-82
2022/03/21 11:25:37;;;;;;;12.10;7.57;;;;;;;19.04;14.77;101406.75;4243741;33;34166;-85
2022/03/21 11:28:40;;;;;;;11.40;7.03;;;;;;;19.12;13.94;101396.94;4233382;33;33554;-76
2022/03/21 11:31:33;;;;;;;13.70;7.18;;;;;;;19.11;13.52;101389.91;4243963;33;34229;-79
2022/03/21 11:34:13;;;;;;;12.18;7.65;;;;;;;20.15;13.36;101396.28;4232434;33;35779;-87
2022/03/21 11:36:56;;;;;;;13.55;7.80;;;;;;;21.37;11.68;101398.31;4232078;33;34494;-77
2022/03/21 11:39:25;;;;;;;11.50;7.28;;;;;;;20.95;11.86;101395.69;4233217;33;33551;-82
2022/03/21 11:42:01;;;;;;;11.68;7.68;;;;;;;20.49;13.30;101391.28;4231916;33;34513;-80
2022/03/21 11:44:29;;;;;;;13.15;7.40;;;;;;;20.08;12.16;101400.81;4232871;33;34918;-78
2022/03/21 11:47:24;;;;;;;13.23;7.20;;;;;;;19.86;12.41;101390.59;4231851;33;34564;-76
2022/03/21 11:49:53;;;;;;;13.32;7.10;;;;;;;18.63;14.13;101391.34;4231661;33;33617;-76
2022/03/21 11:52:23;;;;;;;12.85;7.53;;;;;;;18.79;13.18;101374.44;4231504;33;32934;-77
2022/03/21 11:54:51;;;;;;;11.98;7.55;;;;;;;19.16;14.16;101384.56;4231553;33;36276;-79
2022/03/21 11:57:29;;;;;;;16.35;8.32;;;;;;;19.10;13.66;101377.59;4231842;33;34681;-85
2022/03/21 11:59:58;;;;;;;14.75;7.80;;;;;;;19.18;12.94;101373.97;4231456;33;33856;-77